createdAt,value
2019-05-16T00:13:57.908Z,3.43
2019-05-16T00:16:28.701Z,7.40
2019-05-16T00:18:58.288Z,6.23
2019-05-16T00:21:28.288Z,5.53
2019-05-16T00:23:58.685Z,7.47
2019-05-16T00:26:28.147Z,5.47
2019-05-16T00:28:58.882Z,5.13
2019-05-16T00:31:30.813Z,6.10
2019-05-16T00:33:59.656Z,6.13
2019-05-16T00:36:28.519Z,8.73
2019-05-16T00:38:57.841Z,4.07
2019-05-16T00:41:28.311Z,4.63
2019-05-16T00:43:57.714Z,4.40
2019-05-16T00:46:27.967Z,8.17
2019-05-16T00:48:58.919Z,4.77
2019-05-16T00:51:28.747Z,7.23
2019-05-16T00:53:58.842Z,6.33
2019-05-16T00:56:29.626Z,5.20
2019-05-16T00:58:59.455Z,5.50
2019-05-16T01:01:28.341Z,4.60
2019-05-16T01:03:58.568Z,6.57
2019-05-16T01:06:28.735Z,6.43
2019-05-16T01:08:58.043Z,6.67
2019-05-16T01:11:27.750Z,9.83
2019-05-16T02:48:24.336Z,10.03
2019-05-16T02:51:23.368Z,11.53
2019-05-16T03:40:31.457Z,10.73
2019-05-16T03:43:01.399Z,11.67
2019-05-16T03:49:04.625Z,13.20
2019-05-16T03:51:35.108Z,11.57
2019-05-16T03:54:06.209Z,11.87
2019-05-16T03:56:34.735Z,11.73
2019-05-16T03:59:03.819Z,13.93
2019-05-16T04:01:32.701Z,12.57
2019-05-16T04:04:01.866Z,13.10
2019-05-16T04:06:33.322Z,15.47
2019-05-16T04:09:01.919Z,13.10
2019-05-16T04:11:42.176Z,12.30
2019-05-16T04:14:11.975Z,10.93
2019-05-16T04:16:46.066Z,10.40
2019-05-16T04:19:50.660Z,10.03
2019-05-16T04:31:41.624Z,8.73
2019-05-16T04:34:27.439Z,11.60
2019-05-16T04:36:55.200Z,12.13
2019-05-16T04:39:25.939Z,14.77
2019-05-16T04:55:26.384Z,11.17
2019-05-16T04:56:32.787Z,13.43
2019-05-16T04:59:01.229Z,13.87
2019-05-16T05:06:56.002Z,13.63
2019-05-16T05:09:51.554Z,11.23
2019-05-16T05:15:39.952Z,14.37
2019-05-16T05:18:31.156Z,10.77
2019-05-16T05:25:00.638Z,10.87
2019-05-16T05:47:24.628Z,8.90
2019-05-16T05:49:53.379Z,7.30
2019-05-16T05:52:22.460Z,9.27
2019-05-16T05:57:50.634Z,7.10
2019-05-16T06:00:21.239Z,10.67
2019-05-16T06:03:04.556Z,8.60
2019-05-16T06:05:33.269Z,10.13
2019-05-16T06:08:02.035Z,11.33
2019-05-16T06:10:30.718Z,7.73
2019-05-16T06:13:00.643Z,8.13
2019-05-16T06:15:30.586Z,11.17
2019-05-16T06:18:00.229Z,10.53
2019-05-16T06:20:30.817Z,7.50
2019-05-16T06:23:00.047Z,6.93
2019-05-16T06:25:31.417Z,9.90
2019-05-16T06:28:00.204Z,6.13
2019-05-16T06:30:30.397Z,8.37
2019-05-16T06:32:59.728Z,7.23
2019-05-16T06:35:29.977Z,11.90
2019-05-16T06:38:00.625Z,9.53
2019-05-16T06:40:29.559Z,7.10
2019-05-16T06:43:00.254Z,7.40
2019-05-16T06:45:28.671Z,6.23
2019-05-16T06:47:57.086Z,4.83
2019-05-16T06:50:25.799Z,5.37
2019-05-16T06:52:55.555Z,6.17
2019-05-16T06:55:24.237Z,4.00
2019-05-16T06:57:52.992Z,8.00
2019-05-16T07:00:22.533Z,4.97
2019-05-16T07:02:51.226Z,5.40
2019-05-16T07:05:20.861Z,4.07
2019-05-16T07:07:50.932Z,4.67
2019-05-16T07:10:20.402Z,5.90
2019-05-16T07:12:50.372Z,9.27
2019-05-16T07:15:20.639Z,4.90
2019-05-16T07:17:50.660Z,6.83
2019-05-16T07:20:21.162Z,6.00
2019-05-16T07:22:50.534Z,8.80
2019-05-16T07:25:20.831Z,8.03
2019-05-16T07:27:50.984Z,8.20
2019-05-16T07:30:20.096Z,5.57
2019-05-16T07:32:50.028Z,5.57
2019-05-16T07:35:20.421Z,6.47
2019-05-16T07:37:50.105Z,8.63
2019-05-16T07:40:26.252Z,5.93
2019-05-16T07:42:50.994Z,8.37
2019-05-16T07:45:20.522Z,4.83
2019-05-16T07:47:50.911Z,10.77
2019-05-16T07:50:20.452Z,8.07
2019-05-16T07:52:51.076Z,7.27
2019-05-16T07:55:20.916Z,6.03
2019-05-16T07:57:50.629Z,5.63
2019-05-16T08:00:21.577Z,6.27
2019-05-16T08:02:50.730Z,8.00
2019-05-16T08:05:21.005Z,6.33
2019-05-16T08:07:51.190Z,9.77
2019-05-16T08:10:36.535Z,9.03
2019-05-16T08:12:51.600Z,8.50
2019-05-16T08:15:21.366Z,7.70
2019-05-16T08:17:51.132Z,5.33
2019-05-16T08:20:21.480Z,7.60
2019-05-16T08:22:51.166Z,7.10
2019-05-16T08:25:20.521Z,6.00
2019-05-16T08:28:02.222Z,10.50
2019-05-16T08:30:31.732Z,13.10
2019-05-16T08:48:13.314Z,8.93
2019-05-16T08:50:11.527Z,8.13
2019-05-16T09:10:40.734Z,4.30
2019-05-16T09:23:51.473Z,7.20
2019-05-16T09:26:20.073Z,10.63
2019-05-16T09:28:48.895Z,5.47
2019-05-16T09:31:18.023Z,6.20
2019-05-16T09:56:33.455Z,9.53
2019-05-16T09:59:02.338Z,6.33
2019-05-16T10:01:32.720Z,5.20
2019-05-16T10:04:01.659Z,5.63
2019-05-16T10:06:30.519Z,6.93
2019-05-16T10:08:59.426Z,4.17
2019-05-16T10:11:30.987Z,16.10
2019-05-16T10:13:58.840Z,6.30
2019-05-16T10:16:27.693Z,5.43
2019-05-16T10:18:56.746Z,4.90
2019-05-16T10:21:27.165Z,6.27
2019-05-16T10:23:56.499Z,8.67
2019-05-16T10:26:27.755Z,5.23
2019-05-16T10:28:57.727Z,6.23
2019-05-16T10:31:40.417Z,5.83
2019-05-16T10:33:58.179Z,6.30
2019-05-16T10:36:28.138Z,4.27
2019-05-16T10:38:59.009Z,50.67
2019-05-16T10:41:27.488Z,3.47
2019-05-16T10:43:56.772Z,4.57
2019-05-16T10:46:27.022Z,5.63
2019-05-16T10:48:57.763Z,7.63
2019-05-16T10:51:26.983Z,8.55
2019-05-16T10:54:09.129Z,4.87
2019-05-16T10:56:26.570Z,5.23
2019-05-16T10:59:27.577Z,5.43
2019-05-16T11:01:28.761Z,4.50
2019-05-16T11:03:56.940Z,8.75
2019-05-16T11:06:29.154Z,5.67
2019-05-16T11:08:57.155Z,6.13
2019-05-16T11:11:27.318Z,7.45
2019-05-16T11:13:56.381Z,4.57
2019-05-16T11:16:27.527Z,4.13
2019-05-16T11:19:12.533Z,3.63
2019-05-16T11:21:26.743Z,7.17
2019-05-16T11:23:56.522Z,8.70
2019-05-16T11:26:27.535Z,4.60
2019-05-16T11:28:56.742Z,6.93
2019-05-16T11:31:26.736Z,5.47
2019-05-16T11:33:57.498Z,5.20
2019-05-16T11:36:26.809Z,3.73
2019-05-16T11:39:01.414Z,4.70
2019-05-16T11:41:27.458Z,5.33
2019-05-16T11:43:56.935Z,6.57
2019-05-16T11:46:28.125Z,5.40
2019-05-16T11:48:56.923Z,6.17
2019-05-16T11:51:27.259Z,4.97
2019-05-16T11:54:00.080Z,5.97
2019-05-16T11:56:26.514Z,3.95
2019-05-16T11:58:57.080Z,4.20
2019-05-16T12:01:27.566Z,5.57
2019-05-16T12:03:57.566Z,5.47
2019-05-16T12:06:26.984Z,4.07
2019-05-16T12:08:55.931Z,6.17
2019-05-16T12:11:27.241Z,6.10
2019-05-16T12:13:56.673Z,5.20
2019-05-16T12:16:27.536Z,7.33
2019-05-16T12:18:57.110Z,5.53
2019-05-16T12:21:27.475Z,6.17
2019-05-16T12:23:56.441Z,3.97
2019-05-16T12:26:27.916Z,5.83
2019-05-16T12:28:57.360Z,4.73
2019-05-16T12:31:27.427Z,5.67
2019-05-16T12:33:59.722Z,4.67
2019-05-16T12:36:26.914Z,5.90
2019-05-16T12:38:57.534Z,6.67
2019-05-16T12:41:28.760Z,6.87
2019-05-16T12:43:57.794Z,4.60
2019-05-16T12:46:27.277Z,5.63
2019-05-16T12:49:01.135Z,5.83
2019-05-16T12:51:29.907Z,4.70
2019-05-16T12:53:58.697Z,6.00
2019-05-16T12:56:27.486Z,4.63
2019-05-16T12:58:56.275Z,8.77
2019-05-16T13:01:30.441Z,5.17
2019-05-16T13:03:55.596Z,7.17
2019-05-16T13:06:24.026Z,6.27
2019-05-16T13:08:53.613Z,6.27
2019-05-16T13:11:22.570Z,4.60
2019-05-16T13:14:02.140Z,5.57
2019-05-16T13:16:21.126Z,5.67
2019-05-16T14:41:58.992Z,6.77
2019-05-16T14:47:20.674Z,7.47
2019-05-16T14:49:49.552Z,11.27
2019-05-16T14:52:20.584Z,6.60
2019-05-16T14:54:53.400Z,9.50
2019-05-16T14:57:27.210Z,8.27
2019-05-16T14:59:59.833Z,7.50
2019-05-16T15:02:38.238Z,7.30
2019-05-16T15:05:11.827Z,10.57
2019-05-16T15:07:43.474Z,6.83
2019-05-16T15:10:33.998Z,8.27
2019-05-16T15:13:02.840Z,7.63
2019-05-16T15:15:31.774Z,11.07
2019-05-16T15:18:08.632Z,6.30
2019-05-16T15:20:48.562Z,7.40
2019-05-16T15:23:20.301Z,10.27
2019-05-16T15:31:51.768Z,10.33
2019-05-16T15:37:58.782Z,8.10
2019-05-16T15:40:26.803Z,8.90
2019-05-16T15:43:20.138Z,25.03
2019-05-16T15:49:09.711Z,20.37
2019-05-16T15:51:56.443Z,33.40
2019-05-16T15:54:28.659Z,23.47
2019-05-16T15:56:57.318Z,16.70
2019-05-16T15:59:27.209Z,13.63
2019-05-16T16:02:09.209Z,27.93
2019-05-16T16:11:12.816Z,13.37
2019-05-16T16:26:28.266Z,24.93
2019-05-16T16:35:17.492Z,7.33
2019-05-16T16:38:09.866Z,7.57
2019-05-16T16:40:47.992Z,8.90
2019-05-16T16:49:59.048Z,8.70
2019-05-16T16:56:52.244Z,11.53
2019-05-16T17:48:40.106Z,16.80
2019-05-16T17:51:13.914Z,9.50
2019-05-16T17:53:42.525Z,7.40
2019-05-16T17:56:11.650Z,6.97
2019-05-16T17:58:40.337Z,6.93
2019-05-16T18:01:09.672Z,8.00
2019-05-16T18:03:38.891Z,8.00
2019-05-16T18:06:10.285Z,9.03
2019-05-16T18:08:39.544Z,35.33
2019-05-16T18:11:08.933Z,9.73
2019-05-16T18:13:37.877Z,8.10
2019-05-16T18:16:07.411Z,9.80
2019-05-16T18:18:37.673Z,6.60
2019-05-16T18:21:07.073Z,9.63
2019-05-16T18:23:36.853Z,7.70
2019-05-16T18:26:07.629Z,6.80
2019-05-16T18:28:36.806Z,8.17
2019-05-16T18:31:05.498Z,5.90
2019-05-16T18:33:36.913Z,8.57
2019-05-16T18:36:07.425Z,6.63
2019-05-16T18:38:37.306Z,6.23
2019-05-16T18:41:09.965Z,7.30
2019-05-16T18:43:39.005Z,7.53
2019-05-16T18:46:07.855Z,5.90
2019-05-16T18:48:36.787Z,6.60
2019-05-16T18:51:06.606Z,18.27
2019-05-16T18:53:37.484Z,6.17
2019-05-16T18:56:07.745Z,5.90
2019-05-16T18:58:39.745Z,5.30
2019-05-16T19:01:10.877Z,5.57
2019-05-16T19:03:39.928Z,5.90
2019-05-16T19:06:08.987Z,8.10
2019-05-16T19:08:37.996Z,20.47
2019-05-16T19:11:07.592Z,7.43
2019-05-16T19:13:36.945Z,6.83
2019-05-16T19:16:06.414Z,6.07
2019-05-16T19:18:36.881Z,7.47
2019-05-16T19:21:07.501Z,6.70
2019-05-16T19:23:37.628Z,6.70
2019-05-16T19:26:07.328Z,6.80
2019-05-16T19:28:37.363Z,7.90
2019-05-16T19:31:06.667Z,7.10
2019-05-16T19:33:35.271Z,9.90
2019-05-16T19:36:03.875Z,9.03
2019-05-16T19:38:32.688Z,25.37
2019-05-16T19:41:01.508Z,10.40
2019-05-16T19:43:30.318Z,8.90
2019-05-16T19:45:59.235Z,11.27
2019-05-16T19:48:28.199Z,9.23
2019-05-16T19:50:57.072Z,10.10
2019-05-16T19:53:27.099Z,11.07
2019-05-16T19:55:56.650Z,11.87
2019-05-16T19:58:26.669Z,9.80
2019-05-16T20:00:57.103Z,10.83
2019-05-16T20:03:27.310Z,11.63
2019-05-16T20:05:56.983Z,11.57
2019-05-16T20:08:26.922Z,13.93
2019-05-16T20:10:55.719Z,11.93
2019-05-16T20:13:27.192Z,11.93
2019-05-16T20:15:56.497Z,12.10
2019-05-16T20:18:27.350Z,11.37
2019-05-16T20:20:56.798Z,11.27
2019-05-16T20:23:27.618Z,13.20
2019-05-16T20:25:57.108Z,12.70
2019-05-16T20:28:26.676Z,12.10
2019-05-16T20:30:59.514Z,12.60
2019-05-16T20:33:27.486Z,12.33
2019-05-16T20:35:57.548Z,12.23
2019-05-16T20:38:26.778Z,14.10
2019-05-16T20:40:57.017Z,13.10
2019-05-16T20:43:26.217Z,12.20
2019-05-16T20:45:56.824Z,12.77
2019-05-16T20:48:26.471Z,14.03
2019-05-16T20:50:56.674Z,14.70
2019-05-16T20:53:27.134Z,16.10
2019-05-16T20:55:57.605Z,15.40
2019-05-16T20:58:26.501Z,17.23
2019-05-16T21:01:00.758Z,15.97
2019-05-16T21:03:27.097Z,15.53
2019-05-16T21:05:58.282Z,20.17
2019-05-16T21:08:27.347Z,16.77
2019-05-16T21:10:57.021Z,16.10
2019-05-16T21:13:26.028Z,14.93
2019-05-16T21:15:54.896Z,16.03
2019-05-16T21:18:23.824Z,17.20
2019-05-16T21:20:52.719Z,20.87
2019-05-16T21:23:21.622Z,16.83
2019-05-16T21:25:50.501Z,16.67
2019-05-16T21:28:19.847Z,17.40
2019-05-16T21:30:48.807Z,18.03
2019-05-16T21:33:18.677Z,19.87
2019-05-16T21:35:47.653Z,18.13
2019-05-16T21:38:17.621Z,19.00
2019-05-16T21:40:46.551Z,18.43
2019-05-16T21:43:16.799Z,21.73
2019-05-16T21:45:47.395Z,21.37
2019-05-16T21:48:19.130Z,18.70
2019-05-16T21:50:47.045Z,20.47
2019-05-16T21:53:17.751Z,26.53
2019-05-16T21:55:47.190Z,21.13
2019-05-16T21:58:16.040Z,23.70
2019-05-16T22:00:47.640Z,24.83
2019-05-16T22:03:16.698Z,24.17
2019-05-16T22:05:46.551Z,23.27
2019-05-16T22:08:16.735Z,24.83
2019-05-16T22:10:46.753Z,25.57
2019-05-16T22:13:15.816Z,23.43
2019-05-16T22:15:46.429Z,23.97
2019-05-16T22:18:16.593Z,22.90
2019-05-16T22:20:49.057Z,20.70
2019-05-16T22:23:17.345Z,24.77
2019-05-16T22:25:48.889Z,23.10
2019-05-16T22:28:17.330Z,24.77
2019-05-16T22:30:46.033Z,25.93
2019-05-16T22:33:17.672Z,25.00
2019-05-16T22:35:46.446Z,25.10
2019-05-16T22:38:16.786Z,26.67
2019-05-16T22:40:45.508Z,25.60
2019-05-16T22:43:14.089Z,28.20
2019-05-16T22:45:42.915Z,28.60
2019-05-16T22:48:11.825Z,26.40
2019-05-16T22:50:40.758Z,26.13
2019-05-16T22:53:09.561Z,26.30
2019-05-16T22:55:38.415Z,26.60
2019-05-16T22:58:07.597Z,27.77
2019-05-16T23:00:39.010Z,28.27
2019-05-16T23:03:07.378Z,27.10
2019-05-16T23:05:36.940Z,28.67
2019-05-16T23:08:09.559Z,32.40
2019-05-16T23:10:36.963Z,30.03
2019-05-16T23:13:06.753Z,30.90
2019-05-16T23:15:35.936Z,26.87
2019-05-16T23:18:07.025Z,26.97
2019-05-16T23:20:36.929Z,31.20
2019-05-16T23:23:07.229Z,31.20
2019-05-16T23:25:37.131Z,33.10
2019-05-16T23:28:07.611Z,31.67
2019-05-16T23:30:36.927Z,30.50
2019-05-16T23:33:07.266Z,31.27
2019-05-16T23:35:37.526Z,30.23
2019-05-16T23:38:18.978Z,28.47
2019-05-16T23:40:37.552Z,27.43
2019-05-16T23:43:07.650Z,29.17
2019-05-16T23:45:37.510Z,29.13
2019-05-16T23:48:10.494Z,28.50
2019-05-16T23:50:37.253Z,30.37
2019-05-16T23:53:07.449Z,24.13
2019-05-16T23:55:37.277Z,27.40
2019-05-16T23:58:07.053Z,27.07
